Time;durP1;ratioP1;P1;durP2;ratioP2;P2;SDS_P1;SDS_P2;PMS_P1;PMS_P2;Temp;Humidity;BMP_temperature;BMP_pressure;BME280_temperature;BME280_humidity;BME280_pressure;Samples;Min_cycle;Max_cycle;Signal;HPM_P1;HPM_P2
2021/05/01 00:02:12;;;;;;;24.52;16.00;;;7.20;93.40;;;;;;5025510;28;20035;-69
2021/05/01 00:04:38;;;;;;;31.27;16.52;;;7.10;93.30;;;;;;5028374;28;20438;-69
2021/05/01 00:07:04;;;;;;;25.70;16.15;;;7.10;93.40;;;;;;5006927;28;20395;-69
2021/05/01 00:09:30;;;;;;;23.75;15.27;;;7.10;93.40;;;;;;4983120;28;20031;-69
2021/05/01 00:11:55;;;;;;;25.58;16.00;;;7.10;93.40;;;;;;5010644;28;20495;-69
2021/05/01 00:14:21;;;;;;;23.05;16.25;;;7.10;93.40;;;;;;4990307;28;20060;-68
2021/05/01 00:16:47;;;;;;;23.58;15.52;;;7.00;93.50;;;;;;4983352;28;20381;-69
2021/05/01 00:19:12;;;;;;;25.73;16.35;;;7.00;93.50;;;;;;4982957;28;20039;-69
2021/05/01 00:21:38;;;;;;;26.15;16.73;;;7.00;93.50;;;;;;5022631;28;20047;-69
2021/05/01 00:24:04;;;;;;;29.92;16.63;;;7.00;93.50;;;;;;5005085;28;20038;-69
2021/05/01 00:26:29;;;;;;;26.52;16.85;;;7.00;93.60;;;;;;4987662;28;20061;-69
2021/05/01 00:28:55;;;;;;;24.80;16.10;;;6.90;93.50;;;;;;5013824;28;20062;-69
2021/05/01 00:31:21;;;;;;;25.55;15.38;;;6.90;93.60;;;;;;5010961;28;20484;-69
2021/05/01 00:33:47;;;;;;;20.48;13.68;;;6.80;93.60;;;;;;4988973;28;20045;-69
2021/05/01 00:36:12;;;;;;;23.90;14.55;;;6.80;93.60;;;;;;5039567;28;20034;-69
2021/05/01 00:38:38;;;;;;;20.13;14.32;;;6.80;93.60;;;;;;5055473;28;20027;-68
2021/05/01 00:41:04;;;;;;;25.52;14.45;;;6.80;93.60;;;;;;5007218;28;20038;-69
2021/05/01 00:43:30;;;;;;;20.45;13.80;;;6.70;93.60;;;;;;4979951;28;20030;-69
2021/05/01 00:45:55;;;;;;;18.90;12.15;;;6.70;93.90;;;;;;5018392;28;20040;-69
2021/05/01 00:48:21;;;;;;;18.30;11.98;;;6.70;93.60;;;;;;5007085;28;20108;-69
2021/05/01 00:50:48;;;;;;;16.08;11.98;;;6.70;93.60;;;;;;5018977;28;20423;-69
2021/05/01 00:53:13;;;;;;;17.33;11.88;;;6.70;93.70;;;;;;5022606;28;20034;-68
2021/05/01 00:55:41;;;;;;;22.80;13.23;;;6.60;93.60;;;;;;5004176;28;20031;-69
2021/05/01 00:58:07;;;;;;;17.35;12.48;;;6.60;93.70;;;;;;5001469;28;20027;-69
2021/05/01 01:03:17;;;;;;;24.58;14.57;;;6.60;93.80;;;;;;4991295;28;20061;-69
2021/05/01 01:05:43;;;;;;;25.23;13.80;;;6.60;93.70;;;;;;5016640;28;20117;-69
2021/05/01 01:08:09;;;;;;;30.15;15.32;;;6.60;93.70;;;;;;5012509;28;20038;-69
2021/05/01 01:10:34;;;;;;;23.48;14.52;;;6.60;93.70;;;;;;5038993;28;20036;-69
2021/05/01 01:13:00;;;;;;;21.75;15.13;;;6.60;93.60;;;;;;4998337;28;20024;-69
2021/05/01 01:15:30;;;;;;;21.40;14.25;;;6.60;93.70;;;;;;4976753;28;20031;-69
2021/05/01 01:17:56;;;;;;;28.75;16.45;;;6.50;93.60;;;;;;5075367;28;20100;-69
2021/05/01 01:20:22;;;;;;;25.52;15.55;;;6.40;93.70;;;;;;5008464;28;20111;-69
2021/05/01 01:22:48;;;;;;;24.88;15.82;;;6.30;93.70;;;;;;5019571;28;20031;-69
2021/05/01 01:25:14;;;;;;;30.05;16.10;;;6.30;93.80;;;;;;5052384;28;20092;-69
2021/05/01 01:27:42;;;;;;;24.00;15.75;;;6.20;93.80;;;;;;4993152;28;20030;-69
2021/05/01 01:30:10;;;;;;;23.92;16.00;;;6.10;93.90;;;;;;5025281;28;20026;-69
2021/05/01 01:32:35;;;;;;;23.90;15.27;;;6.10;93.90;;;;;;4985276;28;20069;-69
2021/05/01 01:35:01;;;;;;;20.77;15.23;;;6.00;94.00;;;;;;5061555;28;20134;-69
2021/05/01 01:37:27;;;;;;;24.52;15.77;;;5.90;94.00;;;;;;5056791;28;20065;-69
2021/05/01 01:39:53;;;;;;;23.25;15.00;;;5.90;94.10;;;;;;4978387;28;20023;-69
2021/05/01 01:42:18;;;;;;;23.33;15.25;;;5.80;94.10;;;;;;5067521;28;20032;-69
2021/05/01 01:44:44;;;;;;;26.98;16.35;;;5.70;94.20;;;;;;5026797;28;20081;-69
2021/05/01 01:47:09;;;;;;;19.38;14.23;;;5.50;94.20;;;;;;5018360;28;20028;-69
2021/05/01 01:49:38;;;;;;;33.10;17.55;;;5.50;94.30;;;;;;5074522;28;20020;-69
2021/05/01 01:52:04;;;;;;;27.63;18.17;;;5.40;94.40;;;;;;4998685;28;20036;-69
2021/05/01 01:54:29;;;;;;;31.77;18.00;;;5.30;94.40;;;;;;5028398;28;20045;-69
2021/05/01 01:56:58;;;;;;;29.60;16.95;;;5.30;94.50;;;;;;4996420;28;20109;-69
2021/05/01 01:59:24;;;;;;;31.60;18.15;;;5.20;94.50;;;;;;5043420;28;20019;-69
2021/05/01 02:01:49;;;;;;;26.13;17.83;;;5.10;94.50;;;;;;5017655;28;20472;-69
2021/05/01 02:04:15;;;;;;;29.02;17.92;;;5.10;94.60;;;;;;4983256;28;20080;-69
2021/05/01 02:06:41;;;;;;;23.77;17.90;;;5.00;94.60;;;;;;4994572;28;20034;-69
2021/05/01 02:09:06;;;;;;;26.25;18.55;;;4.90;94.60;;;;;;5083262;28;20041;-69
2021/05/01 02:11:32;;;;;;;30.88;19.83;;;4.90;94.60;;;;;;4987359;28;20034;-69
2021/05/01 02:13:57;;;;;;;27.73;19.33;;;4.90;94.60;;;;;;4985246;28;20038;-69
2021/05/01 02:16:23;;;;;;;33.50;18.58;;;4.80;94.60;;;;;;5030271;28;20418;-69
2021/05/01 02:18:48;;;;;;;30.48;19.38;;;4.70;94.70;;;;;;5068329;28;20031;-69
2021/05/01 02:21:14;;;;;;;32.25;21.00;;;4.70;94.80;;;;;;4999964;28;20040;-69
2021/05/01 02:23:39;;;;;;;33.53;20.98;;;4.70;94.80;;;;;;5073651;28;20089;-69
2021/05/01 02:26:05;;;;;;;32.85;22.45;;;4.60;94.80;;;;;;4990596;28;20057;-69
2021/05/01 02:28:30;;;;;;;31.77;20.83;;;4.60;94.90;;;;;;5023871;28;20032;-69
2021/05/01 02:30:56;;;;;;;35.58;21.75;;;4.60;94.90;;;;;;4986052;28;20026;-69
2021/05/01 02:33:22;;;;;;;33.80;21.20;;;4.50;94.90;;;;;;5002558;28;20396;-69
2021/05/01 02:35:47;;;;;;;33.40;20.63;;;4.50;95.00;;;;;;5028212;28;20032;-69
2021/05/01 02:38:13;;;;;;;35.08;20.38;;;4.40;95.00;;;;;;4994608;28;20037;-69
2021/05/01 02:40:38;;;;;;;33.13;20.58;;;4.40;95.00;;;;;;4982018;28;20037;-69
2021/05/01 02:43:06;;;;;;;29.27;20.85;;;4.30;95.00;;;;;;5001750;28;20027;-69
2021/05/01 02:45:32;;;;;;;34.83;20.95;;;4.30;95.00;;;;;;5001616;28;20110;-69
2021/05/01 02:47:58;;;;;;;34.65;21.27;;;4.20;95.10;;;;;;4990767;28;20486;-69
2021/05/01 02:50:24;;;;;;;40.90;23.33;;;4.20;95.20;;;;;;4996778;28;20031;-69
2021/05/01 02:52:49;;;;;;;34.63;22.10;;;4.20;95.20;;;;;;5027677;28;20033;-69
2021/05/01 02:55:15;;;;;;;30.85;20.60;;;4.10;95.20;;;;;;4986289;28;20113;-68
2021/05/01 02:57:41;;;;;;;30.05;20.65;;;4.10;95.30;;;;;;5060622;28;20016;-69
2021/05/01 03:00:11;;;;;;;31.70;21.38;;;4.00;95.30;;;;;;5002147;28;20038;-69
2021/05/01 03:02:36;;;;;;;33.95;19.90;;;4.00;95.30;;;;;;5009446;28;20026;-69
2021/05/01 03:05:02;;;;;;;32.25;20.77;;;3.90;95.30;;;;;;5001215;28;20022;-69
2021/05/01 03:07:28;;;;;;;28.73;20.58;;;3.90;95.30;;;;;;5047300;28;20470;-69
2021/05/01 03:09:53;;;;;;;35.38;21.27;;;3.80;95.30;;;;;;5007622;28;20045;-69
2021/05/01 03:12:19;;;;;;;31.65;20.30;;;3.80;95.40;;;;;;4981154;28;20034;-69
2021/05/01 03:14:45;;;;;;;36.10;21.00;;;3.80;95.40;;;;;;5027669;28;20024;-69
2021/05/01 03:17:13;;;;;;;36.05;23.48;;;3.60;95.40;;;;;;5007002;28;20047;-69
2021/05/01 03:19:39;;;;;;;33.35;21.60;;;3.60;95.50;;;;;;4995241;28;20046;-68
2021/05/01 03:22:05;;;;;;;35.70;24.25;;;3.60;95.50;;;;;;5003884;28;20088;-69
2021/05/01 03:24:31;;;;;;;43.90;25.17;;;3.60;95.60;;;;;;5037610;28;20042;-69
2021/05/01 03:26:57;;;;;;;43.60;24.88;;;3.60;95.60;;;;;;5056547;28;20024;-69
2021/05/01 03:29:23;;;;;;;42.67;26.50;;;3.60;95.70;;;;;;5020143;28;20042;-69
2021/05/01 03:31:49;;;;;;;45.42;26.85;;;3.60;95.70;;;;;;5018693;28;20024;-69
2021/05/01 03:34:14;;;;;;;44.65;26.63;;;3.60;95.70;;;;;;5016326;28;20066;-69
2021/05/01 03:36:40;;;;;;;40.42;25.55;;;3.60;95.70;;;;;;4995857;28;20030;-69
2021/05/01 03:39:05;;;;;;;45.28;24.58;;;3.50;95.60;;;;;;5061558;28;20034;-69
2021/05/01 03:41:31;;;;;;;36.22;23.98;;;3.50;95.70;;;;;;5010386;28;20051;-69
2021/05/01 03:43:57;;;;;;;38.53;23.35;;;3.50;95.70;;;;;;5029082;28;20110;-69
2021/05/01 03:46:22;;;;;;;36.15;24.27;;;3.40;95.70;;;;;;5009197;28;20020;-69
2021/05/01 03:48:48;;;;;;;38.80;24.75;;;3.40;95.70;;;;;;4988084;28;20023;-69
2021/05/01 03:51:13;;;;;;;40.60;25.02;;;3.30;95.80;;;;;;5020989;28;20080;-69
2021/05/01 03:53:39;;;;;;;46.05;25.75;;;3.30;95.80;;;;;;5043973;28;20028;-68
2021/05/01 03:56:04;;;;;;;43.10;26.70;;;3.30;95.90;;;;;;4981661;28;20042;-68
2021/05/01 03:58:30;;;;;;;46.97;29.02;;;3.20;95.90;;;;;;4994747;28;20034;-68
2021/05/01 04:00:55;;;;;;;49.78;29.70;;;3.20;95.90;;;;;;5068470;28;20038;-69
2021/05/01 04:03:21;;;;;;;48.75;28.92;;;3.30;96.00;;;;;;5042514;28;20028;-69
2021/05/01 04:05:46;;;;;;;51.67;29.92;;;3.20;96.00;;;;;;5040988;28;20038;-69
2021/05/01 04:08:12;;;;;;;53.72;31.02;;;3.20;96.00;;;;;;5016088;28;20071;-69
2021/05/01 04:10:38;;;;;;;59.78;32.97;;;3.20;96.00;;;;;;4992018;28;20087;-68
2021/05/01 04:13:03;;;;;;;37.88;23.83;;;3.20;96.10;;;;;;5003262;28;20026;-68
2021/05/01 04:15:29;;;;;;;40.00;24.23;;;3.20;95.90;;;;;;5033773;28;20078;-68
2021/05/01 04:17:55;;;;;;;44.53;25.42;;;3.10;95.90;;;;;;5053185;28;20031;-68
2021/05/01 04:20:20;;;;;;;47.60;27.27;;;3.10;96.00;;;;;;5019979;28;20098;-69
2021/05/01 04:22:46;;;;;;;48.35;28.38;;;3.10;96.00;;;;;;5000773;28;20030;-69
2021/05/01 04:25:12;;;;;;;58.05;31.90;;;3.00;96.10;;;;;;5022008;28;20089;-69
2021/05/01 04:27:38;;;;;;;55.70;32.58;;;3.00;96.20;;;;;;5071694;28;20036;-69
2021/05/01 04:30:06;;;;;;;59.70;32.60;;;3.00;96.20;;;;;;5076257;28;20041;-69
2021/05/01 04:32:31;;;;;;;58.55;34.10;;;3.10;96.30;;;;;;5014815;28;20031;-68
2021/05/01 04:34:57;;;;;;;59.65;33.15;;;3.10;96.30;;;;;;4999188;28;20077;-69
2021/05/01 04:37:22;;;;;;;65.60;35.88;;;3.20;96.30;;;;;;5001483;28;20026;-68
2021/05/01 04:39:48;;;;;;;60.42;35.22;;;3.20;96.30;;;;;;4996884;28;20502;-69
2021/05/01 04:42:14;;;;;;;61.15;34.13;;;3.20;96.30;;;;;;5000296;28;20022;-69
2021/05/01 04:44:39;;;;;;;62.22;34.88;;;3.20;96.30;;;;;;4993336;28;20422;-69
2021/05/01 04:47:05;;;;;;;63.50;35.75;;;3.30;96.30;;;;;;4989445;28;20027;-69
2021/05/01 04:49:31;;;;;;;56.75;32.67;;;3.30;96.30;;;;;;4997888;28;20034;-69
2021/05/01 04:51:56;;;;;;;58.03;34.38;;;3.30;96.30;;;;;;5016411;28;20592;-69
2021/05/01 04:54:22;;;;;;;64.60;36.65;;;3.30;96.30;;;;;;4991149;28;20037;-69
2021/05/01 04:56:47;;;;;;;61.28;34.80;;;3.40;96.30;;;;;;4994244;28;20035;-69
2021/05/01 04:59:13;;;;;;;66.78;35.72;;;3.40;96.30;;;;;;5006351;28;20468;-69
2021/05/01 05:01:38;;;;;;;60.97;35.65;;;3.40;96.30;;;;;;4994149;28;20038;-69
2021/05/01 05:04:04;;;;;;;62.83;36.30;;;3.50;96.40;;;;;;4988366;28;20038;-70
2021/05/01 05:06:30;;;;;;;60.22;35.30;;;3.50;96.40;;;;;;4990945;28;20026;-69
2021/05/01 05:08:56;;;;;;;71.00;38.53;;;3.50;96.30;;;;;;5017007;28;20527;-70
2021/05/01 05:11:22;;;;;;;66.13;36.35;;;3.60;96.40;;;;;;5015396;28;20118;-70
2021/05/01 05:13:47;;;;;;;64.20;36.10;;;3.70;96.40;;;;;;5003408;28;20105;-70
2021/05/01 05:16:13;;;;;;;64.15;36.67;;;3.70;96.30;;;;;;5015299;28;20101;-70
2021/05/01 05:18:38;;;;;;;61.85;37.35;;;3.70;96.30;;;;;;4986085;28;20101;-70
2021/05/01 05:21:04;;;;;;;59.33;35.90;;;3.80;96.40;;;;;;5005766;28;20050;-70
2021/05/01 05:23:30;;;;;;;63.15;38.75;;;3.80;96.60;;;;;;5060141;28;20428;-70
2021/05/01 05:25:55;;;;;;;67.70;37.38;;;3.80;96.30;;;;;;4985937;28;20026;-69
2021/05/01 05:28:21;;;;;;;60.85;36.88;;;3.90;96.30;;;;;;4987290;28;20030;-69
2021/05/01 05:30:46;;;;;;;67.13;39.92;;;3.90;96.40;;;;;;5011475;28;20034;-69
2021/05/01 05:33:12;;;;;;;72.72;39.67;;;4.00;96.40;;;;;;5023724;28;20065;-69
2021/05/01 05:35:37;;;;;;;62.33;38.63;;;4.10;96.40;;;;;;4991232;28;20145;-69
2021/05/01 05:38:03;;;;;;;63.80;37.47;;;4.20;96.50;;;;;;4986300;28;20026;-70
2021/05/01 05:40:31;;;;;;;67.18;38.72;;;4.40;96.70;;;;;;5004480;28;20438;-70
2021/05/01 05:42:57;;;;;;;68.50;39.75;;;4.60;96.70;;;;;;5026812;28;20070;-69
2021/05/01 05:45:31;;;;;;;64.75;40.30;;;4.80;96.60;;;;;;5026109;28;20404;-69
2021/05/01 05:47:56;;;;;;;68.63;41.33;;;5.00;96.50;;;;;;5054728;28;20107;-69
2021/05/01 05:50:22;;;;;;;66.85;41.22;;;5.10;96.40;;;;;;5030819;28;20128;-69
2021/05/01 05:52:48;;;;;;;65.38;41.22;;;5.20;96.20;;;;;;5000946;28;20031;-69
2021/05/01 05:55:15;;;;;;;69.63;43.63;;;5.30;96.10;;;;;;4984479;28;20062;-70
2021/05/01 05:57:52;;;;;;;78.32;43.40;;;5.50;96.10;;;;;;4983465;28;20023;-69
2021/05/01 06:00:20;;;;;;;71.15;43.17;;;5.60;96.00;;;;;;4973032;28;20472;-69
2021/05/01 06:02:46;;;;;;;73.45;43.83;;;5.60;95.90;;;;;;4987164;28;20026;-69
2021/05/01 06:05:19;;;;;;;68.97;43.42;;;5.80;95.80;;;;;;4993670;28;20093;-69
2021/05/01 06:07:54;;;;;;;71.68;42.65;;;5.80;95.70;;;;;;4993164;28;20496;-69
2021/05/01 06:10:21;;;;;;;67.57;43.25;;;6.00;95.80;;;;;;4988037;28;20041;-70
2021/05/01 06:12:47;;;;;;;61.97;39.03;;;6.10;95.80;;;;;;4988842;28;20030;-70
2021/05/01 06:15:15;;;;;;;63.53;39.35;;;6.20;95.70;;;;;;5003087;28;20087;-70
2021/05/01 06:17:42;;;;;;;68.20;42.05;;;6.30;95.60;;;;;;5026856;28;20382;-70
2021/05/01 06:20:10;;;;;;;66.78;40.33;;;6.40;95.60;;;;;;5012453;28;20125;-70
2021/05/01 06:22:36;;;;;;;58.60;39.05;;;6.40;95.60;;;;;;4989884;28;20080;-70
2021/05/01 06:25:04;;;;;;;58.53;38.17;;;6.50;95.50;;;;;;5002817;28;20050;-70
2021/05/01 06:27:31;;;;;;;55.08;37.38;;;6.60;95.40;;;;;;4987043;28;20026;-70
2021/05/01 06:29:56;;;;;;;58.10;37.90;;;6.60;95.40;;;;;;5067433;28;20028;-69
2021/05/01 06:32:23;;;;;;;52.80;34.58;;;6.70;95.50;;;;;;5019040;28;20026;-71
2021/05/01 06:34:55;;;;;;;43.17;30.80;;;6.80;95.40;;;;;;4987453;28;20164;-70
2021/05/01 06:37:22;;;;;;;50.55;31.88;;;6.80;95.30;;;;;;4995830;28;20408;-70
2021/05/01 06:39:50;;;;;;;46.13;30.85;;;6.90;95.30;;;;;;5070754;28;20032;-70
2021/05/01 06:42:19;;;;;;;51.95;31.92;;;7.00;95.20;;;;;;5038128;28;20091;-70
2021/05/01 06:44:54;;;;;;;36.58;27.05;;;7.10;95.20;;;;;;4996729;28;20026;-70
2021/05/01 06:47:27;;;;;;;39.97;25.40;;;7.20;95.10;;;;;;5007470;28;20023;-70
2021/05/01 06:50:00;;;;;;;38.58;25.88;;;7.30;95.10;;;;;;5016744;28;20068;-70
2021/05/01 06:52:26;;;;;;;28.88;19.55;;;7.30;95.00;;;;;;4995938;28;20042;-69
2021/05/01 06:54:52;;;;;;;31.67;21.38;;;7.50;94.70;;;;;;5053236;28;20024;-69
2021/05/01 06:57:23;;;;;;;31.08;21.48;;;7.50;94.50;;;;;;4982526;28;20031;-69
2021/05/01 06:59:53;;;;;;;33.17;21.17;;;7.60;94.60;;;;;;4988766;28;20371;-69
2021/05/01 07:02:23;;;;;;;23.50;17.40;;;7.70;94.40;;;;;;4991531;28;20168;-69
2021/05/01 07:04:51;;;;;;;26.88;17.33;;;7.80;94.30;;;;;;4991689;28;20140;-69
2021/05/01 07:07:21;;;;;;;26.65;18.08;;;7.90;94.40;;;;;;4983928;28;20113;-69
2021/05/01 07:09:48;;;;;;;34.78;18.08;;;8.10;94.20;;;;;;4982248;28;20388;-69
2021/05/01 07:12:14;;;;;;;23.77;16.98;;;8.20;94.20;;;;;;4985089;28;20076;-69
2021/05/01 07:14:43;;;;;;;21.42;14.13;;;8.30;93.90;;;;;;5081989;28;20136;-69
2021/05/01 07:17:11;;;;;;;21.95;13.45;;;8.30;93.60;;;;;;5056282;28;20391;-69
2021/05/01 07:19:37;;;;;;;22.00;14.43;;;8.30;93.40;;;;;;5001815;28;20542;-69
2021/05/01 07:22:03;;;;;;;24.10;12.50;;;8.30;93.20;;;;;;4989922;28;20050;-69
2021/05/01 07:24:29;;;;;;;15.23;10.80;;;8.40;93.10;;;;;;4992190;28;20022;-69
2021/05/01 07:26:56;;;;;;;18.83;11.70;;;8.50;93.00;;;;;;4979973;28;20038;-69
2021/05/01 07:29:26;;;;;;;18.27;11.07;;;8.70;92.90;;;;;;4980095;28;20064;-69
2021/05/01 07:31:55;;;;;;;16.67;9.35;;;8.90;92.30;;;;;;5000936;28;20020;-69
2021/05/01 07:34:23;;;;;;;15.98;10.57;;;8.90;91.70;;;;;;4974858;28;20038;-69
2021/05/01 07:36:53;;;;;;;16.38;10.32;;;8.80;91.40;;;;;;5064114;28;20065;-69
2021/05/01 07:39:19;;;;;;;16.52;10.18;;;8.70;91.00;;;;;;4981876;28;20034;-69
2021/05/01 07:41:48;;;;;;;16.05;10.25;;;8.80;91.00;;;;;;4983312;28;20110;-69
2021/05/01 07:44:14;;;;;;;16.52;10.35;;;8.90;91.00;;;;;;5002520;28;20030;-69
2021/05/01 07:46:41;;;;;;;15.00;10.98;;;9.00;90.50;;;;;;4982625;28;20522;-69
2021/05/01 07:49:08;;;;;;;13.43;10.38;;;9.00;90.70;;;;;;5012001;28;20030;-69
2021/05/01 07:51:35;;;;;;;18.98;12.25;;;9.00;90.40;;;;;;4986778;28;20030;-69
2021/05/01 07:54:02;;;;;;;16.70;11.00;;;9.00;90.40;;;;;;4986880;28;20031;-69
2021/05/01 07:56:28;;;;;;;17.60;11.30;;;9.10;90.50;;;;;;5029013;28;20125;-69
2021/05/01 07:58:55;;;;;;;15.00;10.30;;;9.40;90.50;;;;;;4988222;28;20033;-69
2021/05/01 08:01:27;;;;;;;18.55;10.75;;;9.60;90.00;;;;;;5010144;28;20061;-69
2021/05/01 08:03:53;;;;;;;14.18;9.00;;;9.70;88.20;;;;;;4981496;28;20036;-69
2021/05/01 08:06:19;;;;;;;12.38;9.45;;;9.50;85.40;;;;;;5069031;28;20040;-69
2021/05/01 08:08:45;;;;;;;14.98;9.75;;;9.40;86.40;;;;;;5033946;28;20061;-69
2021/05/01 08:11:10;;;;;;;12.82;7.50;;;9.40;87.30;;;;;;5011474;28;20030;-69
2021/05/01 08:13:36;;;;;;;11.75;6.68;;;9.40;86.90;;;;;;4993025;28;20030;-69
2021/05/01 08:16:01;;;;;;;10.73;7.25;;;9.60;87.40;;;;;;4984306;28;20049;-69
2021/05/01 08:18:27;;;;;;;8.55;6.70;;;9.70;85.50;;;;;;4999484;28;20030;-70
2021/05/01 08:20:52;;;;;;;13.15;6.72;;;9.90;86.10;;;;;;4989406;28;20484;-69
2021/05/01 08:23:18;;;;;;;14.05;7.40;;;10.20;86.00;;;;;;5079077;28;20477;-69
2021/05/01 08:25:44;;;;;;;15.50;7.45;;;10.40;85.80;;;;;;4999039;28;20370;-70
2021/05/01 08:28:09;;;;;;;10.88;6.43;;;10.70;85.50;;;;;;5040235;28;20650;-70
2021/05/01 08:30:35;;;;;;;11.77;6.07;;;10.90;83.30;;;;;;5015314;28;20030;-70
2021/05/01 08:33:01;;;;;;;13.18;6.10;;;10.90;82.20;;;;;;4994883;28;20073;-70
2021/05/01 08:35:26;;;;;;;9.77;4.90;;;10.70;80.90;;;;;;4991533;28;20381;-70
2021/05/01 08:37:52;;;;;;;9.02;4.40;;;10.50;79.70;;;;;;4999287;28;20387;-70
2021/05/01 08:40:17;;;;;;;8.77;4.80;;;10.20;79.50;;;;;;5009369;28;20358;-70
2021/05/01 08:42:45;;;;;;;6.85;3.75;;;10.00;80.40;;;;;;5049390;28;20064;-70
2021/05/01 08:45:13;;;;;;;7.20;4.25;;;9.90;81.10;;;;;;5024211;28;20039;-70
2021/05/01 08:47:43;;;;;;;9.27;4.13;;;10.00;81.20;;;;;;4992791;28;20101;-70
2021/05/01 08:50:36;;;;;;;9.30;5.35;;;10.20;80.40;;;;;;4992894;28;20079;-69
2021/05/01 08:53:02;;;;;;;6.57;4.03;;;10.50;80.20;;;;;;4990368;28;20380;-70
2021/05/01 08:55:35;;;;;;;8.07;3.75;;;10.70;79.80;;;;;;4988525;28;20297;-69
2021/05/01 08:58:02;;;;;;;6.07;3.47;;;10.80;76.40;;;;;;5022278;28;20057;-70
2021/05/01 09:00:29;;;;;;;12.13;3.78;;;10.60;76.40;;;;;;5006947;28;20015;-70
2021/05/01 09:03:22;;;;;;;6.63;3.53;;;10.60;76.90;;;;;;4987909;28;20109;-70
2021/05/01 09:05:49;;;;;;;8.43;3.65;;;10.80;75.70;;;;;;4979279;28;20039;-70
2021/05/01 09:08:16;;;;;;;7.40;3.78;;;10.90;74.80;;;;;;5013605;28;20438;-70
2021/05/01 09:10:49;;;;;;;10.27;4.57;;;11.10;75.00;;;;;;4986506;28;20027;-70
2021/05/01 09:13:23;;;;;;;6.38;4.22;;;11.30;74.70;;;;;;5032614;28;20024;-70
2021/05/01 09:16:01;;;;;;;9.35;4.32;;;11.60;74.00;;;;;;5003901;28;20034;-70
2021/05/01 09:18:29;;;;;;;7.45;4.20;;;11.70;72.20;;;;;;5005168;28;20064;-70
2021/05/01 09:20:54;;;;;;;8.32;4.25;;;11.60;72.10;;;;;;4985355;28;20121;-69
2021/05/01 09:23:20;;;;;;;6.78;2.78;;;11.40;71.70;;;;;;5016559;28;20024;-70
2021/05/01 09:25:57;;;;;;;9.52;3.95;;;11.10;71.20;;;;;;4995284;28;20041;-69
2021/05/01 09:28:24;;;;;;;6.43;3.72;;;10.80;70.70;;;;;;5003288;28;20468;-70
2021/05/01 09:31:07;;;;;;;5.35;3.92;;;10.50;71.10;;;;;;5009007;28;20024;-70
2021/05/01 09:33:35;;;;;;;9.52;4.95;;;10.20;72.40;;;;;;5021356;28;20081;-69
2021/05/01 09:36:13;;;;;;;14.60;4.53;;;10.10;73.60;;;;;;5003972;28;20037;-69
2021/05/01 09:38:50;;;;;;;9.27;3.47;;;10.30;74.60;;;;;;4985989;28;20022;-69
2021/05/01 09:41:27;;;;;;;8.68;3.72;;;10.70;74.50;;;;;;4992036;28;20032;-69
2021/05/01 09:44:04;;;;;;;5.70;3.25;;;11.10;73.30;;;;;;5052553;28;20016;-69
2021/05/01 09:46:43;;;;;;;6.45;2.92;;;11.60;72.70;;;;;;5015524;28;20109;-70
2021/05/01 09:49:14;;;;;;;7.32;3.22;;;11.90;71.00;;;;;;5001430;28;20031;-69
2021/05/01 09:51:54;;;;;;;5.93;3.25;;;12.10;70.30;;;;;;4993633;28;20037;-69
2021/05/01 09:54:38;;;;;;;7.13;3.70;;;12.40;70.50;;;;;;5024944;28;20035;-69
2021/05/01 09:57:10;;;;;;;5.93;3.45;;;12.70;69.40;;;;;;4988943;28;20035;-70
2021/05/01 09:59:41;;;;;;;7.88;3.30;;;12.80;68.20;;;;;;4992476;28;20126;-70
2021/05/01 10:02:17;;;;;;;6.55;3.92;;;12.70;67.70;;;;;;5003710;28;20030;-70
2021/05/01 10:04:59;;;;;;;8.52;3.42;;;12.50;67.20;;;;;;5003937;28;20024;-70
2021/05/01 10:07:25;;;;;;;7.50;2.90;;;12.30;67.00;;;;;;5044360;28;20024;-70
2021/05/01 10:09:57;;;;;;;6.95;3.35;;;12.00;66.90;;;;;;5013329;28;20033;-70
2021/05/01 10:12:32;;;;;;;4.38;3.08;;;11.90;67.80;;;;;;4999341;28;20036;-70
2021/05/01 10:14:59;;;;;;;6.60;3.53;;;11.70;67.90;;;;;;5011799;28;20114;-70
2021/05/01 10:17:28;;;;;;;6.18;3.10;;;11.60;66.10;;;;;;4981901;28;20050;-70
2021/05/01 10:19:55;;;;;;;5.75;3.45;;;11.40;65.80;;;;;;5023484;28;20019;-69
2021/05/01 10:22:30;;;;;;;4.80;3.17;;;11.20;67.30;;;;;;5019741;28;20043;-69
2021/05/01 10:25:05;;;;;;;5.63;3.13;;;11.20;67.20;;;;;;5002478;28;20034;-70
2021/05/01 10:27:50;;;;;;;7.57;3.95;;;11.10;68.10;;;;;;5009494;28;20372;-69
2021/05/01 10:33:20;;;;;;;6.38;4.00;;;11.50;69.90;;;;;;5020782;28;20027;-70
2021/05/01 10:35:54;;;;;;;6.68;3.45;;;11.80;68.50;;;;;;4983277;28;20035;-70
2021/05/01 10:38:21;;;;;;;5.80;2.80;;;11.90;68.20;;;;;;4988583;28;20023;-70
2021/05/01 10:40:53;;;;;;;6.45;3.38;;;12.20;68.90;;;;;;4989290;28;20026;-69
2021/05/01 10:43:21;;;;;;;6.55;3.30;;;12.50;67.60;;;;;;4977785;28;20026;-70
2021/05/01 10:45:57;;;;;;;4.57;3.00;;;12.60;64.70;;;;;;4999569;28;20026;-69
2021/05/01 10:48:24;;;;;;;4.90;2.72;;;12.50;63.40;;;;;;5001762;28;20061;-69
2021/05/01 10:51:08;;;;;;;5.68;2.95;;;12.30;62.40;;;;;;4982385;28;20030;-70
2021/05/01 10:53:36;;;;;;;3.90;1.90;;;12.10;62.80;;;;;;5005294;28;20024;-70
2021/05/01 10:56:04;;;;;;;6.57;2.22;;;11.90;60.20;;;;;;4992743;28;20114;-69
2021/05/01 10:58:36;;;;;;;7.63;2.83;;;11.70;59.30;;;;;;5075865;28;20106;-69
2021/05/01 11:01:07;;;;;;;5.75;3.30;;;11.40;60.70;;;;;;4990681;28;20022;-68
2021/05/01 11:03:41;;;;;;;7.40;3.10;;;11.20;64.20;;;;;;5017154;28;20026;-69
2021/05/01 11:06:08;;;;;;;8.30;3.05;;;10.90;66.60;;;;;;4985224;28;20030;-69
2021/05/01 11:08:45;;;;;;;3.95;2.58;;;10.60;67.70;;;;;;5052814;28;20028;-69
2021/05/01 11:11:13;;;;;;;6.05;3.67;;;10.50;69.30;;;;;;5017446;28;20030;-69
2021/05/01 11:13:41;;;;;;;5.55;3.05;;;10.40;70.40;;;;;;5016280;28;20033;-69
2021/05/01 11:16:09;;;;;;;6.38;3.30;;;10.40;70.70;;;;;;5005794;28;20026;-69
2021/05/01 11:18:39;;;;;;;5.63;3.45;;;10.40;70.80;;;;;;5038004;28;20030;-69
2021/05/01 11:21:07;;;;;;;7.40;3.50;;;10.40;70.90;;;;;;4998060;28;20044;-69
2021/05/01 11:23:35;;;;;;;7.80;3.50;;;10.50;71.40;;;;;;5088941;28;20027;-69
2021/05/01 11:26:05;;;;;;;7.38;3.63;;;10.70;71.60;;;;;;5039700;28;20031;-69
2021/05/01 11:28:32;;;;;;;7.78;4.15;;;10.80;70.10;;;;;;5035458;28;20038;-69
2021/05/01 11:30:58;;;;;;;7.10;3.97;;;10.90;70.40;;;;;;5013798;28;20076;-69
2021/05/01 11:33:26;;;;;;;7.25;4.00;;;11.00;70.40;;;;;;5047456;28;20028;-69
2021/05/01 11:35:52;;;;;;;7.93;3.67;;;11.20;69.10;;;;;;5053691;28;20046;-69
2021/05/01 11:38:25;;;;;;;8.35;3.80;;;11.50;68.90;;;;;;4999624;28;20030;-69
2021/05/01 11:40:54;;;;;;;7.13;3.33;;;12.00;68.80;;;;;;5026122;28;20083;-69
2021/05/01 11:43:25;;;;;;;6.90;3.47;;;12.40;68.10;;;;;;4999439;28;20109;-69
2021/05/01 11:46:10;;;;;;;7.67;3.63;;;12.90;66.60;;;;;;4993624;28;20384;-69
2021/05/01 11:48:52;;;;;;;5.25;2.90;;;13.00;63.20;;;;;;5058838;28;20060;-69
2021/05/01 11:51:27;;;;;;;9.18;3.00;;;13.00;62.50;;;;;;5023398;28;20113;-69
2021/05/01 11:54:03;;;;;;;9.10;3.17;;;12.90;61.20;;;;;;4988115;28;20183;-69
2021/05/01 11:56:50;;;;;;;8.38;3.13;;;12.90;61.70;;;;;;4988755;28;20042;-69
2021/05/01 11:59:16;;;;;;;9.73;3.47;;;13.00;61.60;;;;;;5007941;28;20026;-69
2021/05/01 12:01:59;;;;;;;6.13;3.20;;;13.00;60.90;;;;;;4993579;28;20544;-69
2021/05/01 12:04:47;;;;;;;6.07;2.97;;;13.10;59.60;;;;;;5009788;28;20478;-69
2021/05/01 12:07:32;;;;;;;5.15;2.63;;;13.20;59.00;;;;;;4992344;28;20023;-69
2021/05/01 12:10:06;;;;;;;5.22;2.50;;;13.30;57.90;;;;;;4985698;28;20035;-69
2021/05/01 12:12:33;;;;;;;4.22;1.90;;;13.40;58.60;;;;;;4986960;28;20388;-69
2021/05/01 12:15:05;;;;;;;3.15;1.30;;;13.40;55.10;;;;;;5018518;28;20370;-69
2021/05/01 12:17:31;;;;;;;3.47;1.40;;;13.00;54.10;;;;;;5008227;28;20091;-69
2021/05/01 12:20:17;;;;;;;4.07;1.58;;;12.80;55.20;;;;;;5041077;28;20096;-69
2021/05/01 12:22:43;;;;;;;3.40;1.77;;;12.80;56.80;;;;;;5025713;28;20028;-69
2021/05/01 12:25:37;;;;;;;3.25;1.70;;;12.80;56.60;;;;;;5089770;28;20035;-69
2021/05/01 12:28:05;;;;;;;5.75;2.22;;;12.80;57.60;;;;;;4996836;28;20092;-69
2021/05/01 12:30:39;;;;;;;3.63;2.08;;;12.90;58.00;;;;;;5005235;28;20030;-69
2021/05/01 12:33:23;;;;;;;3.85;2.10;;;13.10;58.00;;;;;;5022683;28;20028;-69
2021/05/01 12:35:51;;;;;;;6.40;3.03;;;13.10;57.80;;;;;;4996112;28;20039;-69
2021/05/01 12:38:19;;;;;;;6.28;2.97;;;13.00;58.40;;;;;;4974084;28;20023;-69
2021/05/01 12:40:45;;;;;;;3.50;2.53;;;13.20;58.10;;;;;;4986279;28;20365;-69
2021/05/01 12:43:32;;;;;;;5.63;3.05;;;13.10;58.40;;;;;;4982106;28;20027;-69
2021/05/01 12:45:58;;;;;;;5.18;2.33;;;13.30;59.30;;;;;;5028436;28;20572;-69
2021/05/01 12:48:50;;;;;;;4.30;2.70;;;13.40;58.40;;;;;;5013268;28;20042;-69
2021/05/01 12:51:22;;;;;;;7.25;2.83;;;13.50;58.30;;;;;;4999621;28;20031;-69
2021/05/01 12:53:49;;;;;;;4.70;2.55;;;13.60;58.30;;;;;;4989827;28;20061;-69